createdAt,value
2022-09-12T00:01:18.211Z,9.75
2022-09-12T00:03:45.485Z,9.72
2022-09-12T00:06:24.517Z,9.70
2022-09-12T00:08:54.187Z,9.67
2022-09-12T00:11:21.604Z,9.69
2022-09-12T00:13:49.080Z,9.68
2022-09-12T00:16:18.367Z,9.66
2022-09-12T00:18:47.060Z,9.65
2022-09-12T00:21:15.537Z,9.64
2022-09-12T00:23:42.550Z,9.63
2022-09-12T00:26:09.696Z,9.64
2022-09-12T00:28:38.109Z,9.66
2022-09-12T00:31:07.936Z,9.65
2022-09-12T00:33:36.056Z,9.63
2022-09-12T00:36:08.857Z,9.63
2022-09-12T00:38:38.754Z,9.67
2022-09-12T00:41:06.425Z,9.67
2022-09-12T00:43:42.757Z,9.66
2022-09-12T00:46:40.202Z,9.66
2022-09-12T00:49:18.440Z,9.69
2022-09-12T00:51:50.938Z,9.66
2022-09-12T00:54:22.559Z,9.62
2022-09-12T00:56:50.856Z,9.62
2022-09-12T00:59:22.148Z,9.61
2022-09-12T01:01:51.341Z,9.64
2022-09-12T01:04:20.811Z,9.64
2022-09-12T01:06:48.734Z,9.65
2022-09-12T01:09:20.988Z,9.62
2022-09-12T01:11:48.702Z,9.63
2022-09-12T01:14:17.379Z,9.63
2022-09-12T01:16:45.458Z,9.62
2022-09-12T01:19:31.938Z,9.59
2022-09-12T01:22:29.776Z,9.54
2022-09-12T01:25:29.035Z,9.49
2022-09-12T01:28:27.017Z,9.45
2022-09-12T01:31:13.946Z,9.38
2022-09-12T01:34:02.426Z,9.37
2022-09-12T01:36:29.613Z,9.33
2022-09-12T01:39:00.751Z,9.30
2022-09-12T01:41:50.247Z,9.32
2022-09-12T01:44:24.638Z,9.36
2022-09-12T01:47:14.118Z,9.39
2022-09-12T01:49:47.067Z,9.39
2022-09-12T01:52:21.836Z,9.39
2022-09-12T01:54:55.010Z,9.40
2022-09-12T01:57:32.658Z,9.40
2022-09-12T02:00:08.957Z,9.40
2022-09-12T02:02:48.617Z,9.39
2022-09-12T02:05:19.048Z,9.36
2022-09-12T02:07:54.136Z,9.36
2022-09-12T02:10:29.164Z,9.37
2022-09-12T02:13:08.585Z,9.41
2022-09-12T02:15:40.906Z,9.42
2022-09-12T02:18:09.017Z,9.39
2022-09-12T02:20:48.937Z,9.38
2022-09-12T02:23:22.559Z,9.37
2022-09-12T02:25:53.994Z,9.38
2022-09-12T02:28:28.262Z,9.39
2022-09-12T02:31:17.488Z,9.36
2022-09-12T02:34:10.655Z,9.31
2022-09-12T02:36:50.530Z,9.33
2022-09-12T02:39:20.181Z,9.28
2022-09-12T02:41:55.019Z,9.19
2022-09-12T02:44:22.477Z,9.22
2022-09-12T02:46:53.577Z,9.16
2022-09-12T02:49:20.559Z,9.17
2022-09-12T02:51:48.221Z,9.14
2022-09-12T02:54:16.124Z,9.16
2022-09-12T02:56:44.387Z,9.13
2022-09-12T02:59:14.573Z,9.09
2022-09-12T03:02:08.416Z,9.07
2022-09-12T03:04:59.207Z,9.10
2022-09-12T03:07:44.673Z,9.15
2022-09-12T03:10:25.209Z,9.13
2022-09-12T03:12:59.519Z,9.14
2022-09-12T03:15:32.137Z,9.16
2022-09-12T03:18:06.359Z,9.17
2022-09-12T03:20:42.344Z,9.17
2022-09-12T03:23:37.543Z,9.18
2022-09-12T03:26:10.146Z,9.19
2022-09-12T03:28:40.186Z,9.20
2022-09-12T03:31:19.047Z,9.20
2022-09-12T03:33:46.257Z,9.23
2022-09-12T03:36:21.235Z,9.22
2022-09-12T03:38:48.177Z,9.25
2022-09-12T03:41:15.346Z,9.25
2022-09-12T03:43:42.298Z,9.25
2022-09-12T03:46:09.275Z,9.23
2022-09-12T03:48:36.367Z,9.22
2022-09-12T03:51:09.202Z,9.19
2022-09-12T03:53:36.598Z,9.18
2022-09-12T03:56:08.538Z,9.16
2022-09-12T03:58:36.419Z,9.19
2022-09-12T04:01:12.778Z,9.16
2022-09-12T04:03:41.561Z,9.14
2022-09-12T04:06:10.050Z,9.11
2022-09-12T04:08:37.913Z,9.09
2022-09-12T04:11:13.068Z,9.08
2022-09-12T04:13:41.650Z,9.09
2022-09-12T04:16:09.041Z,9.08
2022-09-12T04:18:36.334Z,9.11
2022-09-12T04:21:15.184Z,9.16
2022-09-12T04:23:42.561Z,9.17
2022-09-12T04:26:10.218Z,9.17
2022-09-12T04:28:38.349Z,9.18
2022-09-12T04:31:24.026Z,9.20
2022-09-12T04:33:56.047Z,9.30
2022-09-12T04:36:23.807Z,9.47
2022-09-12T04:38:51.631Z,9.56
2022-09-12T04:41:22.307Z,9.91
2022-09-12T04:43:53.457Z,10.38
2022-09-12T04:46:21.215Z,10.63
2022-09-12T04:48:51.349Z,10.40
2022-09-12T04:51:26.021Z,10.20
2022-09-12T04:53:54.589Z,10.20
2022-09-12T04:56:22.431Z,10.79
2022-09-12T04:58:49.904Z,11.38
2022-09-12T05:01:21.744Z,11.44
2022-09-12T05:03:49.741Z,11.07
2022-09-12T05:06:19.268Z,10.75
2022-09-12T05:08:47.025Z,10.99
2022-09-12T05:11:17.604Z,11.57
2022-09-12T05:13:46.820Z,11.66
2022-09-12T05:16:15.733Z,11.51
2022-09-12T05:18:44.403Z,11.42
2022-09-12T05:21:13.226Z,11.33
2022-09-12T05:23:40.384Z,11.27
2022-09-12T05:26:08.778Z,11.30
2022-09-12T05:28:37.627Z,11.39
2022-09-12T05:31:11.452Z,11.55
2022-09-12T05:33:41.526Z,11.72
2022-09-12T05:36:11.701Z,11.86
2022-09-12T05:38:39.410Z,11.98
2022-09-12T05:41:24.181Z,12.09
2022-09-12T05:43:53.921Z,12.23
2022-09-12T05:46:22.746Z,12.34
2022-09-12T05:48:55.103Z,12.41
2022-09-12T05:51:25.588Z,12.50
2022-09-12T05:53:55.156Z,12.55
2022-09-12T05:56:24.768Z,12.63
2022-09-12T05:58:59.351Z,12.71
2022-09-12T06:01:27.825Z,12.83
2022-09-12T06:03:57.802Z,12.96
2022-09-12T06:06:25.757Z,13.07
2022-09-12T06:08:55.061Z,13.19
2022-09-12T06:11:23.495Z,13.26
2022-09-12T06:13:51.167Z,13.33
2022-09-12T06:16:20.510Z,13.44
2022-09-12T06:18:49.419Z,13.54
2022-09-12T06:21:17.045Z,13.62
2022-09-12T06:23:46.295Z,13.70
2022-09-12T06:26:13.949Z,13.80
2022-09-12T06:28:42.164Z,13.93
2022-09-12T06:31:14.941Z,14.08
2022-09-12T06:33:44.215Z,14.26
2022-09-12T06:36:16.285Z,14.42
2022-09-12T06:38:44.189Z,14.45
2022-09-12T06:41:12.503Z,14.41
2022-09-12T06:43:40.681Z,14.43
2022-09-12T06:46:09.164Z,14.45
2022-09-12T06:48:41.534Z,14.52
2022-09-12T06:51:13.967Z,14.60
2022-09-12T06:53:42.734Z,14.65
2022-09-12T06:56:14.875Z,14.71
2022-09-12T06:58:42.826Z,14.78
2022-09-12T07:01:12.636Z,14.84
2022-09-12T07:03:40.249Z,14.91
2022-09-12T07:06:14.614Z,14.98
2022-09-12T07:08:42.167Z,15.09
2022-09-12T07:11:12.595Z,15.14
2022-09-12T07:13:40.954Z,15.21
2022-09-12T07:16:08.625Z,15.24
2022-09-12T07:18:38.103Z,15.26
2022-09-12T07:21:07.634Z,15.24
2022-09-12T07:23:34.853Z,15.31
2022-09-12T07:26:02.242Z,15.37
2022-09-12T07:28:31.462Z,15.45
2022-09-12T07:31:02.279Z,15.46
2022-09-12T07:33:30.325Z,15.51
2022-09-12T07:36:01.895Z,15.59
2022-09-12T07:38:28.954Z,15.59
2022-09-12T07:40:55.943Z,15.63
2022-09-12T07:43:23.579Z,15.67
2022-09-12T07:45:56.000Z,15.70
2022-09-12T07:48:23.326Z,15.76
2022-09-12T07:51:01.434Z,15.91
2022-09-12T07:53:34.136Z,15.95
2022-09-12T07:56:03.327Z,16.00
2022-09-12T07:58:31.346Z,15.99
2022-09-12T08:01:06.039Z,16.12
2022-09-12T08:03:33.314Z,16.23
2022-09-12T08:06:08.253Z,16.21
2022-09-12T08:08:35.394Z,16.32
2022-09-12T08:11:06.085Z,16.37
2022-09-12T08:13:35.196Z,16.27
2022-09-12T08:16:08.326Z,16.22
2022-09-12T08:18:36.495Z,16.15
2022-09-12T08:21:08.334Z,16.16
2022-09-12T08:23:35.264Z,16.39
2022-09-12T08:26:06.147Z,16.42
2022-09-12T08:28:35.564Z,16.56
2022-09-12T08:31:07.721Z,16.60
2022-09-12T08:33:35.128Z,16.67
2022-09-12T08:36:10.382Z,16.85
2022-09-12T08:38:39.243Z,16.86
2022-09-12T08:41:06.343Z,16.80
2022-09-12T08:43:45.028Z,16.83
2022-09-12T08:46:23.329Z,16.61
2022-09-12T08:48:50.424Z,16.43
2022-09-12T08:51:19.507Z,16.38
2022-09-12T08:53:48.195Z,16.50
2022-09-12T08:56:15.408Z,16.53
2022-09-12T08:58:44.855Z,16.47
2022-09-12T09:01:33.543Z,16.60
2022-09-12T09:04:29.066Z,16.75
2022-09-12T09:07:04.765Z,16.71
2022-09-12T09:09:41.203Z,16.69
2022-09-12T09:12:22.424Z,16.84
2022-09-12T09:15:12.135Z,17.10
2022-09-12T09:17:43.078Z,17.24
2022-09-12T09:20:13.623Z,17.02
2022-09-12T09:22:46.025Z,16.72
2022-09-12T09:25:43.915Z,16.75
2022-09-12T09:28:18.605Z,16.75
2022-09-12T09:30:46.646Z,16.73
2022-09-12T09:33:29.054Z,16.86
2022-09-12T09:36:22.636Z,16.99
2022-09-12T09:38:54.315Z,17.09
2022-09-12T09:42:02.024Z,17.20
2022-09-12T09:44:29.984Z,17.34
2022-09-12T09:46:59.443Z,17.41
2022-09-12T09:49:31.984Z,17.30
2022-09-12T09:52:02.594Z,17.13
2022-09-12T09:54:50.751Z,17.20
2022-09-12T09:57:36.443Z,17.23
2022-09-12T10:00:25.024Z,17.39
2022-09-12T10:03:13.756Z,17.39
2022-09-12T10:06:33.275Z,17.29
2022-09-12T10:09:17.967Z,17.43
2022-09-12T10:11:46.884Z,17.64
2022-09-12T10:14:38.063Z,17.90
2022-09-12T10:17:33.900Z,17.79
2022-09-12T10:20:20.468Z,17.73
2022-09-12T10:22:48.884Z,17.69
2022-09-12T10:25:16.904Z,17.63
2022-09-12T10:27:43.905Z,17.59
2022-09-12T10:30:18.805Z,17.64
2022-09-12T10:32:50.799Z,17.73
2022-09-12T10:35:33.495Z,17.72
2022-09-12T10:38:03.941Z,17.84
2022-09-12T10:40:35.524Z,18.01
2022-09-12T10:43:03.217Z,17.93
2022-09-12T10:45:32.775Z,17.72
2022-09-12T10:48:07.372Z,17.69
2022-09-12T10:50:42.925Z,17.73
2022-09-12T10:53:21.693Z,17.74
2022-09-12T10:56:10.606Z,17.70
2022-09-12T10:58:59.283Z,17.70
2022-09-12T11:01:32.526Z,17.69
2022-09-12T11:04:21.344Z,17.63
2022-09-12T11:07:25.800Z,17.73
2022-09-12T11:10:33.148Z,18.02
2022-09-12T11:13:34.174Z,18.01
2022-09-12T11:16:11.124Z,17.83
2022-09-12T11:18:48.823Z,17.91
2022-09-12T11:21:34.535Z,17.99
2022-09-12T11:24:26.145Z,17.96
2022-09-12T11:27:13.344Z,17.90
2022-09-12T11:29:52.519Z,17.90
2022-09-12T11:33:10.664Z,17.90
2022-09-12T11:35:54.999Z,17.80
2022-09-12T11:38:33.554Z,17.81
2022-09-12T11:41:15.565Z,17.87
2022-09-12T11:44:02.691Z,17.94
2022-09-12T11:46:39.585Z,17.98
2022-09-12T11:49:17.547Z,17.74
2022-09-12T11:51:47.604Z,17.85
2022-09-12T11:54:30.025Z,17.87
2022-09-12T11:57:22.755Z,17.87
2022-09-12T11:59:53.214Z,17.99
2022-09-12T12:02:29.147Z,18.06
2022-09-12T12:05:37.855Z,18.03
2022-09-12T12:08:06.331Z,18.08
2022-09-12T12:10:37.444Z,18.14
2022-09-12T12:13:22.365Z,17.99
2022-09-12T12:15:52.749Z,17.98
2022-09-12T12:18:23.902Z,17.85
2022-09-12T12:20:51.926Z,17.76
2022-09-12T12:23:34.535Z,17.79
2022-09-12T12:26:04.718Z,17.91
2022-09-12T12:28:50.744Z,17.97
2022-09-12T12:31:18.371Z,18.06
2022-09-12T12:33:45.362Z,18.22
2022-09-12T12:36:38.703Z,18.26
2022-09-12T12:39:36.837Z,18.40
2022-09-12T12:42:04.084Z,18.33
2022-09-12T12:44:50.275Z,18.16
2022-09-12T12:47:23.374Z,18.14
2022-09-12T12:49:52.937Z,18.15
2022-09-12T12:52:20.564Z,18.16
2022-09-12T12:54:47.816Z,18.33
2022-09-12T12:57:20.529Z,18.37
2022-09-12T12:59:48.605Z,18.39
2022-09-12T13:02:31.889Z,18.38
2022-09-12T13:05:01.196Z,18.31
2022-09-12T13:07:31.725Z,18.22
2022-09-12T13:09:59.849Z,18.06
2022-09-12T13:12:38.614Z,18.06
2022-09-12T13:15:42.225Z,18.09
2022-09-12T13:18:24.144Z,17.99
2022-09-12T13:21:16.426Z,18.06
2022-09-12T13:23:43.525Z,18.07
2022-09-12T13:26:14.106Z,18.00
2022-09-12T13:28:41.164Z,17.96
2022-09-12T13:31:26.600Z,17.87
2022-09-12T13:34:02.975Z,17.65
2022-09-12T13:36:54.935Z,17.51
2022-09-12T13:39:28.355Z,17.56
2022-09-12T13:42:01.365Z,17.66
2022-09-12T13:44:28.699Z,17.58
2022-09-12T13:46:59.474Z,17.53
2022-09-12T13:49:36.265Z,17.53
2022-09-12T13:52:04.380Z,17.58
2022-09-12T13:54:31.974Z,17.55
2022-09-12T13:56:59.893Z,17.53
2022-09-12T13:59:26.801Z,17.51
2022-09-12T14:01:53.839Z,17.51
2022-09-12T14:04:42.094Z,17.48
2022-09-12T14:07:19.715Z,17.52
2022-09-12T14:09:54.164Z,17.59
2022-09-12T14:12:43.534Z,17.64
2022-09-12T14:15:27.680Z,17.63
2022-09-12T14:18:01.500Z,17.61
2022-09-12T14:20:33.585Z,17.57
2022-09-12T14:23:04.804Z,17.63
2022-09-12T14:25:41.389Z,17.55
2022-09-12T14:28:13.886Z,17.47
2022-09-12T14:30:41.233Z,17.46
2022-09-12T14:33:11.297Z,17.42
2022-09-12T14:35:43.800Z,17.42
2022-09-12T14:38:17.090Z,17.43
2022-09-12T14:40:49.949Z,17.44
2022-09-12T14:43:27.257Z,17.46
2022-09-12T14:45:59.933Z,17.46
2022-09-12T14:48:36.472Z,17.43
2022-09-12T14:51:04.205Z,17.49
2022-09-12T14:53:32.984Z,17.55
2022-09-12T14:56:11.191Z,17.56
2022-09-12T14:58:39.426Z,17.64
2022-09-12T15:01:06.407Z,17.75
2022-09-12T15:03:54.025Z,17.80
2022-09-12T15:06:28.410Z,17.82
2022-09-12T15:08:57.463Z,17.75
2022-09-12T15:11:24.854Z,17.71
2022-09-12T15:13:52.114Z,17.51
2022-09-12T15:16:19.371Z,17.26
2022-09-12T15:18:46.480Z,17.12
2022-09-12T15:21:17.920Z,16.88
2022-09-12T15:23:49.935Z,16.66
2022-09-12T15:26:20.075Z,16.54
2022-09-12T15:28:47.274Z,16.43
2022-09-12T15:31:22.835Z,16.35
2022-09-12T15:33:50.216Z,16.24
2022-09-12T15:36:20.211Z,16.09
2022-09-12T15:38:48.154Z,16.00
2022-09-12T15:41:27.297Z,15.92
2022-09-12T15:43:54.563Z,15.83
2022-09-12T15:46:21.987Z,15.75
2022-09-12T15:48:50.237Z,15.67
2022-09-12T15:51:19.602Z,15.64
2022-09-12T15:53:48.079Z,15.64
2022-09-12T15:56:16.930Z,15.64
2022-09-12T15:58:57.795Z,15.58
2022-09-12T16:01:26.184Z,15.58
2022-09-12T16:03:53.333Z,15.59
2022-09-12T16:06:20.608Z,15.53
2022-09-12T16:08:47.717Z,15.46
2022-09-12T16:11:23.448Z,15.39
2022-09-12T16:13:53.183Z,15.38
2022-09-12T16:16:20.567Z,15.34
2022-09-12T16:18:47.871Z,15.29
2022-09-12T16:21:15.863Z,15.24
2022-09-12T16:23:48.473Z,15.20
2022-09-12T16:26:15.898Z,15.20
2022-09-12T16:28:43.358Z,15.13
2022-09-12T16:31:13.191Z,15.06
2022-09-12T16:33:40.629Z,14.98
2022-09-12T16:36:09.725Z,14.91
2022-09-12T16:38:55.124Z,14.86
2022-09-12T16:41:25.188Z,14.84
2022-09-12T16:43:52.625Z,14.78
2022-09-12T16:46:28.805Z,14.70
2022-09-12T16:48:57.948Z,14.64
2022-09-12T16:51:33.475Z,14.59
2022-09-12T16:54:00.966Z,14.52
2022-09-12T16:56:28.148Z,14.50
2022-09-12T16:58:55.662Z,14.45
2022-09-12T17:01:24.598Z,14.41
2022-09-12T17:03:56.738Z,14.35
2022-09-12T17:06:25.456Z,14.31
2022-09-12T17:08:53.839Z,14.27
2022-09-12T17:11:25.604Z,14.21
2022-09-12T17:14:05.818Z,14.17
2022-09-12T17:16:35.679Z,14.11
2022-09-12T17:19:02.899Z,14.03
2022-09-12T17:21:29.784Z,13.97
2022-09-12T17:23:57.136Z,13.86
2022-09-12T17:26:24.020Z,13.87
2022-09-12T17:28:51.001Z,13.84
2022-09-12T17:31:18.150Z,13.85
2022-09-12T17:33:45.333Z,13.80
2022-09-12T17:36:17.985Z,13.82
2022-09-12T17:38:45.870Z,13.86
2022-09-12T17:41:18.686Z,13.86
2022-09-12T17:43:47.475Z,13.78
2022-09-12T17:46:14.731Z,13.79
2022-09-12T17:48:41.866Z,13.73
2022-09-12T17:51:13.815Z,13.64
2022-09-12T17:53:41.048Z,13.54
2022-09-12T17:56:08.404Z,13.40
2022-09-12T17:58:35.886Z,13.28
2022-09-12T18:01:28.989Z,13.08
2022-09-12T18:03:57.374Z,12.96
2022-09-12T18:06:24.651Z,12.81
2022-09-12T18:08:51.969Z,12.71
2022-09-12T18:11:19.284Z,12.61
2022-09-12T18:13:47.608Z,12.54
2022-09-12T18:16:14.794Z,12.44
2022-09-12T18:18:41.931Z,12.37
2022-09-12T18:21:11.056Z,12.29
2022-09-12T18:23:38.568Z,12.25
2022-09-12T18:26:07.874Z,12.19
2022-09-12T18:28:37.120Z,12.13
2022-09-12T18:31:04.785Z,12.08
2022-09-12T18:33:32.258Z,12.05
2022-09-12T18:36:04.689Z,11.99
2022-09-12T18:38:32.544Z,11.95
2022-09-12T18:41:04.482Z,11.88
2022-09-12T18:43:31.887Z,11.91
2022-09-12T18:46:16.693Z,11.84
2022-09-12T18:48:45.484Z,11.81
2022-09-12T18:51:17.999Z,11.73
2022-09-12T18:53:52.106Z,11.72
2022-09-12T18:56:19.738Z,11.68
2022-09-12T18:58:50.767Z,11.62
2022-09-12T19:01:26.439Z,11.58
2022-09-12T19:03:54.940Z,11.55
2022-09-12T19:06:22.956Z,11.50
2022-09-12T19:08:51.340Z,11.48
2022-09-12T19:11:18.934Z,11.47
2022-09-12T19:13:47.760Z,11.45
2022-09-12T19:16:17.914Z,11.44
2022-09-12T19:18:48.136Z,11.33
2022-09-12T19:21:24.571Z,11.24
2022-09-12T19:23:52.490Z,11.14
2022-09-12T19:26:20.606Z,11.07
2022-09-12T19:28:47.831Z,11.01
2022-09-12T19:31:19.156Z,10.95
2022-09-12T19:33:47.654Z,10.90
2022-09-12T19:36:41.286Z,10.84
2022-09-12T19:39:08.907Z,10.79
2022-09-12T19:41:36.877Z,10.78
2022-09-12T19:44:05.198Z,10.80
2022-09-12T19:46:33.025Z,10.82
2022-09-12T19:49:00.347Z,10.80
2022-09-12T19:51:27.696Z,10.79
2022-09-12T19:53:55.772Z,10.78
2022-09-12T19:56:23.513Z,10.73
2022-09-12T19:58:55.722Z,10.68
2022-09-12T20:01:30.586Z,10.62
2022-09-12T20:03:59.145Z,10.61
2022-09-12T20:06:27.630Z,10.60
2022-09-12T20:08:55.826Z,10.58
2022-09-12T20:11:23.928Z,10.56
2022-09-12T20:13:51.811Z,10.50
2022-09-12T20:16:22.600Z,10.46
2022-09-12T20:18:56.143Z,10.43
2022-09-12T20:21:26.292Z,10.40
2022-09-12T20:23:53.348Z,10.33
2022-09-12T20:26:20.638Z,10.29
2022-09-12T20:28:47.964Z,10.29
2022-09-12T20:31:16.515Z,10.26
2022-09-12T20:33:47.561Z,10.20
2022-09-12T20:36:19.414Z,10.14
2022-09-12T20:38:51.874Z,10.10
2022-09-12T20:41:22.268Z,10.15
2022-09-12T20:43:51.261Z,10.22
2022-09-12T20:46:21.909Z,10.19
2022-09-12T20:48:50.707Z,10.17
2022-09-12T20:51:18.339Z,10.13
2022-09-12T20:53:45.619Z,10.10
2022-09-12T20:56:12.774Z,10.08
2022-09-12T20:58:43.800Z,10.05
2022-09-12T21:01:12.641Z,10.01
2022-09-12T21:03:40.725Z,10.02
2022-09-12T21:06:09.169Z,10.01
2022-09-12T21:08:37.196Z,9.98
2022-09-12T21:11:05.282Z,9.91
2022-09-12T21:13:32.191Z,9.85
2022-09-12T21:16:04.363Z,9.83
2022-09-12T21:18:32.743Z,9.81
2022-09-12T21:20:59.762Z,9.81
2022-09-12T21:23:27.689Z,9.78
2022-09-12T21:25:54.924Z,9.72
2022-09-12T21:28:22.239Z,9.63
2022-09-12T21:30:49.929Z,9.59
2022-09-12T21:33:18.329Z,9.54
2022-09-12T21:35:46.045Z,9.49
2022-09-12T21:38:13.558Z,9.45
2022-09-12T21:40:40.549Z,9.40
2022-09-12T21:43:12.329Z,9.41
2022-09-12T21:45:40.044Z,9.42
2022-09-12T21:48:07.116Z,9.39
2022-09-12T21:50:34.310Z,9.30
2022-09-12T21:53:01.445Z,9.24
2022-09-12T21:55:28.757Z,9.23
2022-09-12T21:57:55.899Z,9.21
2022-09-12T22:00:23.395Z,9.18
2022-09-12T22:02:50.550Z,9.14
2022-09-12T22:05:21.417Z,9.11
2022-09-12T22:07:48.475Z,9.10
2022-09-12T22:10:15.557Z,9.09
2022-09-12T22:12:46.229Z,9.06
2022-09-12T22:15:39.025Z,9.06
2022-09-12T22:18:01.594Z,9.09
2022-09-12T22:20:28.677Z,9.11
2022-09-12T22:23:14.171Z,9.12
2022-09-12T22:25:55.356Z,9.14
2022-09-12T22:28:22.776Z,9.12
2022-09-12T22:30:49.869Z,9.08
2022-09-12T22:33:16.995Z,9.07
2022-09-12T22:35:44.280Z,9.04
2022-09-12T22:38:11.337Z,9.00
2022-09-12T22:40:38.473Z,8.99
2022-09-12T22:43:05.803Z,8.98
2022-09-12T22:45:32.733Z,8.97
2022-09-12T22:48:00.975Z,8.96
2022-09-12T22:50:28.715Z,8.92
2022-09-12T22:52:56.228Z,8.92
2022-09-12T22:55:23.594Z,8.86
2022-09-12T22:57:50.601Z,8.82
2022-09-12T23:00:19.433Z,8.80
2022-09-12T23:02:46.953Z,8.77
2022-09-12T23:05:13.970Z,8.75
2022-09-12T23:07:40.977Z,8.73
2022-09-12T23:10:08.399Z,8.71
2022-09-12T23:12:35.359Z,8.67
2022-09-12T23:15:02.362Z,8.61
2022-09-12T23:17:29.362Z,8.58
2022-09-12T23:19:56.472Z,8.53
2022-09-12T23:22:23.414Z,8.49
2022-09-12T23:24:50.451Z,8.41
2022-09-12T23:27:17.537Z,8.39
2022-09-12T23:29:44.817Z,8.36
2022-09-12T23:32:12.309Z,8.34
2022-09-12T23:34:39.400Z,8.33
2022-09-12T23:37:07.004Z,8.32
2022-09-12T23:39:34.247Z,8.33
2022-09-12T23:42:01.194Z,8.34
2022-09-12T23:44:28.252Z,8.34
2022-09-12T23:46:55.193Z,8.33
2022-09-12T23:49:22.321Z,8.29
2022-09-12T23:51:49.276Z,8.28
2022-09-12T23:54:16.492Z,8.22
2022-09-12T23:56:43.513Z,8.22
2022-09-12T23:59:10.538Z,8.18
